METAR Data
IDs: Format: Raw Decoded Include TAF

Data at: 1545 UTC 21 Sep 2018

KAXV 211535Z AUTO 23021G28KT 10SM CLR 30/20 A2995 RMK AO2
KAXV 211515Z AUTO 23015G26KT 10SM CLR 30/20 A2996 RMK AO2
KAXV 211455Z AUTO 23019G27KT 7SM CLR 29/21 A2996 RMK AO2
KAXV 211435Z AUTO 21013G24KT 10SM CLR 28/21 A2996 RMK AO2
KAXV 211415Z AUTO 22015G22KT 10SM CLR 27/21 A2996 RMK AO2
KAXV 211355Z AUTO 21014KT 10SM CLR 26/22 A2997 RMK AO2
KAXV 211335Z AUTO 21011KT 10SM CLR 26/22 A2997 RMK AO2
KAXV 211315Z AUTO 20011G16KT 10SM CLR 25/22 A2996 RMK AO2
KAXV 211255Z AUTO 20012G15KT 10SM CLR 25/22 A2996 RMK AO2
KAXV 211235Z AUTO 19011G17KT 10SM CLR 24/22 A2997 RMK AO2
KAXV 211215Z AUTO 19009G14KT 10SM CLR 23/22 A2997 RMK AO2
KAXV 211155Z AUTO 19009KT 10SM CLR 23/22 A2997 RMK AO2
KAXV 211135Z AUTO 19008KT 10SM CLR 23/22 A2996 RMK AO2
KAXV 211115Z AUTO 18010KT 10SM CLR 23/22 A2996 RMK AO2
KAXV 211055Z AUTO 18008KT 10SM CLR 23/22 A2996 RMK AO2
KAXV 211035Z AUTO 18008KT 10SM CLR 23/22 A2997 RMK AO2
KAXV 211015Z AUTO 19008KT 10SM CLR 23/22 A2997 RMK AO2
KAXV 210955Z AUTO 19006KT 10SM CLR 23/22 A2998 RMK AO2
KAXV 210935Z AUTO 19007KT 10SM CLR 23/22 A2998 RMK AO2
KAXV 210915Z AUTO 19006KT 10SM CLR 23/22 A2998 RMK AO2
KAXV 210855Z AUTO 18007KT 10SM CLR 24/22 A2998 RMK AO2
KAXV 210835Z AUTO 19008KT 10SM CLR 24/22 A2998 RMK AO2
KAXV 210815Z AUTO 18009KT 10SM CLR 24/22 A2998 RMK AO2
KAXV 210755Z AUTO 19009G15KT 10SM CLR 24/22 A2998 RMK AO2
KAXV 210735Z AUTO 19010G15KT 10SM CLR 24/22 A2998 RMK AO2
KAXV 210715Z AUTO 19009KT 10SM CLR 25/22 A2998 RMK AO2
KAXV 210655Z AUTO 19009KT 10SM CLR 25/22 A2998 RMK AO2
KAXV 210635Z AUTO 19010KT 10SM CLR 25/22 A2998 RMK AO2
KAXV 210615Z AUTO 19009KT 10SM CLR 25/22 A2998 RMK AO2
KAXV 210555Z AUTO 19007KT 10SM CLR 25/22 A2999 RMK AO2
KAXV 210535Z AUTO 18009KT 10SM CLR 25/22 A2999 RMK AO2
KAXV 210515Z AUTO 19008KT 10SM CLR 25/22 A2999 RMK AO2
KAXV 210455Z AUTO 18007KT 10SM CLR 25/22 A2999 RMK AO2
KAXV 210435Z AUTO 17006KT 10SM CLR 25/22 A2999 RMK AO2
KAXV 210415Z AUTO 17006KT 10SM CLR 25/22 A3000 RMK AO2
KAXV 210355Z AUTO 17006KT 10SM CLR 25/22 A2999 RMK AO2
KAXV 210335Z AUTO 17006KT 10SM CLR 25/21 A2999 RMK AO2
KAXV 210315Z AUTO 17006KT 10SM CLR 25/21 A2999 RMK AO2
KAXV 210255Z AUTO 17007KT 10SM CLR 26/21 A2999 RMK AO2
KAXV 210235Z AUTO 17007KT 10SM CLR 26/21 A2999 RMK AO2
KAXV 210215Z AUTO 17006KT 10SM CLR 26/21 A2999 RMK AO2
KAXV 210155Z AUTO 17006KT 10SM CLR 26/21 A3000 RMK AO2
KAXV 210135Z AUTO 18005KT 10SM CLR 27/21 A3000 RMK AO2
KAXV 210115Z AUTO 19007KT 10SM CLR 27/21 A3000 RMK AO2
KAXV 210055Z AUTO 19007KT 10SM CLR 27/21 A3000 RMK AO2
KAXV 210035Z AUTO 19005KT 10SM CLR 28/21 A3000 RMK AO2
KAXV 210015Z AUTO 19007KT 10SM CLR 28/21 A3000 RMK AO2
KAXV 202355Z AUTO 18005KT 10SM CLR 28/20 A2999 RMK AO2 LTG DSNT N
KAXV 202335Z AUTO 20005KT 10SM CLR 28/20 A2999 RMK AO2
KAXV 202315Z AUTO 20006KT 7SM CLR 30/20 A2999 RMK AO2 LTG DSNT N
KAXV 202255Z AUTO 22006KT 10SM CLR 31/20 A2999 RMK AO2 LTG DSNT N
KAXV 202235Z AUTO 22009KT 10SM CLR 31/20 A2999 RMK AO2
KAXV 202215Z AUTO 21009G16KT 7SM SCT060 SCT075 SCT110 32/20 A2998 RMK AO2
KAXV 202155Z AUTO 20011KT 10SM SCT060 BKN075 BKN085 32/20 A2998 RMK AO2
KAXV 202135Z AUTO 18005KT 10SM SCT060 SCT085 32/20 A2997 RMK AO2
KAXV 202115Z AUTO 20011KT 7SM SCT060 SCT075 BKN110 32/19 A2998 RMK AO2
KAXV 202055Z AUTO 20005KT 10SM SCT060 SCT110 32/20 A2999 RMK AO2
KAXV 202035Z AUTO 19010KT 7SM SCT060 SCT100 33/19 A2999 RMK AO2
KAXV 202015Z AUTO 22006KT 10SM SCT060 SCT070 32/20 A2999 RMK AO2
KAXV 201955Z AUTO 24006KT 10SM SCT060 32/20 A3000 RMK AO2
KAXV 201935Z AUTO 22009G14KT 10SM CLR 33/19 A3000 RMK AO2
KAXV 201915Z AUTO 22009KT 7SM SCT055 33/19 A3001 RMK AO2
KAXV 201855Z AUTO 20011G15KT 7SM SCT055 33/19 A3002 RMK AO2
KAXV 201835Z AUTO 19010KT 7SM SCT055 SCT090 32/20 A3002 RMK AO2
KAXV 201815Z AUTO 22007G14KT 10SM SCT050 32/19 A3004 RMK AO2
KAXV 201755Z AUTO 21011G18KT 10SM SCT050 32/20 A3005 RMK AO2
KAXV 201735Z AUTO 24010G17KT 7SM SCT050 SCT065 33/20 A3005 RMK AO2
KAXV 201715Z AUTO 23009G19KT 7SM SCT048 BKN055 32/20 A3005 RMK AO2
KAXV 201655Z AUTO 22011G17KT 10SM SCT046 SCT055 31/21 A3007 RMK AO2
KAXV 201635Z AUTO 22011G16KT 7SM SCT041 31/22 A3007 RMK AO2
KAXV 201615Z AUTO 20009KT 10SM CLR 30/23 A3007 RMK AO2
KAXV 201555Z AUTO 20008KT 7SM CLR 30/23 A3008 RMK AO2
KAXV 201535Z AUTO 19008KT 10SM CLR 30/23 A3008 RMK AO2
KAXV 201515Z AUTO 19006KT 7SM CLR 28/23 A3008 RMK AO2
KAXV 201455Z AUTO 21009KT 7SM CLR 28/23 A3008 RMK AO2
KAXV 201435Z AUTO 20007KT 10SM CLR 27/23 A3008 RMK AO2
KAXV 201415Z AUTO 20007KT 7SM CLR 26/23 A3008 RMK AO2
KAXV 201355Z AUTO 19008KT 4SM BR CLR 26/23 A3008 RMK AO2
KAXV 201335Z AUTO 18007KT 10SM CLR 24/23 A3008 RMK AO2
KAXV 201315Z AUTO 17007KT 7SM CLR 23/23 A3008 RMK AO2
KAXV 201255Z AUTO 17006KT 7SM CLR 23/23 A3007 RMK AO2
KAXV 201235Z AUTO 17005KT 10SM CLR 22/22 A3007 RMK AO2
KAXV 201215Z AUTO 17006KT 7SM CLR 21/21 A3007 RMK AO2
KAXV 201155Z AUTO 17005KT 7SM CLR 21/21 A3006 RMK AO2
KAXV 201135Z AUTO 17007KT 7SM CLR 21/21 A3006 RMK AO2
KAXV 201115Z AUTO 16008KT 10SM CLR 21/21 A3005 RMK AO2
KAXV 201055Z AUTO 16007KT 10SM CLR 20/20 A3005 RMK AO2
KAXV 201035Z AUTO 15004KT 10SM CLR 20/20 A3006 RMK AO2
KAXV 201015Z AUTO 15005KT 10SM CLR 20/20 A3006 RMK AO2
KAXV 200955Z AUTO 15005KT 10SM CLR 20/20 A3005 RMK AO2
KAXV 200935Z AUTO 14004KT 5SM BR CLR 20/20 A3006 RMK AO2
KAXV 200915Z AUTO 15005KT 10SM CLR 20/20 A3005 RMK AO2
KAXV 200855Z AUTO 13005KT 10SM CLR 20/20 A3005 RMK AO2
KAXV 200835Z AUTO 14005KT 7SM CLR 20/20 A3005 RMK AO2
KAXV 200815Z AUTO 14003KT 10SM CLR 20/20 A3005 RMK AO2
KAXV 200755Z AUTO 13005KT 10SM CLR 20/20 A3005 RMK AO2
KAXV 200735Z AUTO 14004KT 10SM CLR 20/20 A3005 RMK AO2
KAXV 200715Z AUTO 14003KT 7SM CLR 20/20 A3005 RMK AO2
KAXV 200655Z AUTO 14003KT 10SM CLR 20/20 A3005 RMK AO2
KAXV 200635Z AUTO 13004KT 10SM CLR 20/20 A3005 RMK AO2
KAXV 200615Z AUTO 11004KT 7SM CLR 20/20 A3004 RMK AO2
KAXV 200555Z AUTO 12003KT 7SM CLR 20/20 A3005 RMK AO2
KAXV 200535Z AUTO 11004KT 10SM CLR 19/19 A3005 RMK AO2
KAXV 200515Z AUTO 11004KT 7SM CLR 19/19 A3005 RMK AO2
KAXV 200455Z AUTO 10004KT 10SM CLR 20/20 A3005 RMK AO2
KAXV 200435Z AUTO 09005KT 7SM CLR 20/20 A3005 RMK AO2
KAXV 200415Z AUTO 08004KT 10SM CLR 20/20 A3005 RMK AO2
KAXV 200355Z AUTO 09006KT 7SM CLR 20/20 A3005 RMK AO2